Flight Track Log - Related Links

Times and Time Zones

All times are in EDT time to prevent confusion due to time zone crossing. See the EGF4174 flight status page for this flight to view local times or setup timezone preferences in your user account.

Time Position Orientation Groundspeed Altitude Reporting Facility
EDT Latitude Longitude Course Direction KTS MPH feet Rate Location/Type
Sat 05:26:15 PM 43.1078 -76.1261 286° West 134 154 1,100  Level Boston Center
Sat 05:26:57 PM 43.1064 -76.1689 267° West 159 183 2,900 2,478 Climbing Boston Center
Sat 05:28:00 PM 43.1833 -76.4131 270° West  Level FlightAware Approximate
Sat 05:28:33 PM 43.1264 -76.2817 284° West 175 201 6,800  Level Cleveland Center
Sat 05:29:00 PM 43.2022 -76.5152 281° West  Level FlightAware Approximate
Sat 05:29:33 PM 43.1583 -76.3592 299° West 196 226 9,600  Level Cleveland Center
Sat 05:30:00 PM 43.2189 -76.6269 286° West  Level FlightAware Approximate
Sat 05:30:33 PM 43.1947 -76.4422 301° West 234 269 11,400  Level Cleveland Center
Sat 05:31:00 PM 43.2424 -76.7363 286° West  Level FlightAware Approximate
Sat 05:31:33 PM 43.2192 -76.5433 288° West 264 304 12,800  Level Cleveland Center
Sat 05:32:33 PM 43.2378 -76.6561 283° West 286 329 14,100 1,350 Climbing Cleveland Center
Sat 05:33:33 PM 43.2583 -76.7717 284° West 306 352 15,500 1,400 Climbing Cleveland Center
Sat 05:34:33 PM 43.2747 -76.8933 281° West 319 367 16,900 1,250 Climbing Cleveland Center
Sat 05:35:33 PM 43.2950 -77.0119 283° West 319 367 18,000 1,250 Climbing Cleveland Center
Sat 05:36:33 PM 43.3092 -77.1308 279° West 319 367 19,400 1,400 Climbing Cleveland Center
Sat 05:37:33 PM 43.2958 -77.2486 261° West 312 359 20,800 1,350 Climbing Cleveland Center
Sat 05:38:33 PM 43.2783 -77.3636 258° West 312 359 22,100 1,350 Climbing Cleveland Center
Sat 05:39:33 PM 43.2650 -77.4842 261° West 317 365 23,500 1,350 Climbing Cleveland Center
Sat 05:40:33 PM 43.2492 -77.5989 259° West 317 365 24,800 1,300 Climbing Cleveland Center
Sat 05:41:33 PM 43.2311 -77.7111 258° West 317 365 26,100 1,250 Climbing Cleveland Center
Sat 05:42:33 PM 43.2172 -77.8256 261° West 317 365 27,300 1,200 Climbing Cleveland Center
Sat 05:43:33 PM 43.2011 -77.9403 259° West 317 365 28,500 1,250 Climbing Cleveland Center
Sat 05:44:33 PM 43.1850 -78.0547 259° West 317 365 29,800 1,250 Climbing Cleveland Center
Sat 05:45:33 PM 43.1686 -78.1694 259° West 317 365 31,000 1,200 Climbing Cleveland Center
Sat 05:46:33 PM 43.1522 -78.2867 259° West 317 365 32,200 1,200 Climbing Cleveland Center
Sat 05:47:33 PM 43.1403 -78.4153 263° West 317 365 33,400 1,200 Climbing Cleveland Center
Sat 05:48:33 PM 43.1383 -78.5433 269° West 333 383 34,600 1,150 Climbing Cleveland Center
Sat 05:49:33 PM 43.1342 -78.6686 267° West 333 383 35,700 700 Climbing Cleveland Center
Sat 05:50:33 PM 43.1322 -78.7967 269° West 333 383 36,000 150 Climbing Cleveland Center
Sat 05:51:33 PM 43.1281 -78.9392 268° West 356 410 36,000  Level Cleveland Center
Sat 05:52:32 PM 43.1167 -79.0667 263° West 370 426 36,000  Level Toronto Center
Sat 05:53:32 PM 43.1167 -79.2000 270° West 370 426 36,000  Level Toronto Center
Sat 05:54:32 PM 43.1000 -79.3333 260° West 370 426 36,000  Level Toronto Center
Sat 05:55:32 PM 43.1000 -79.4667 270° West 380 437 36,000  Level Toronto Center
Sat 05:56:32 PM 43.1000 -79.6333 270° West 370 426 36,000  Level Toronto Center
Sat 05:57:32 PM 43.0833 -79.7667 260° West 360 414 36,000  Level Toronto Center
Sat 05:58:32 PM 43.0833 -79.8833 270° West 360 414 36,000  Level Toronto Center
Sat 05:59:32 PM 43.0833 -80.0500 270° West 350 403 36,000  Level Toronto Center
Sat 06:00:32 PM 43.0667 -80.1833 260° West 360 414 36,000  Level Toronto Center
Sat 06:01:32 PM 43.0667 -80.3167 270° West 380 437 36,000  Level Toronto Center
Sat 06:02:32 PM 43.0667 -80.4500 270° West 380 437 36,000  Level Toronto Center
Sat 06:03:32 PM 43.0500 -80.6167 262° West 380 437 36,000  Level Toronto Center
Sat 06:04:32 PM 43.0500 -80.7500 270° West 380 437 36,000  Level Toronto Center
Sat 06:05:32 PM 43.0333 -80.8833 260° West 380 437 36,000  Level Toronto Center
Sat 06:06:32 PM 43.0333 -81.0167 270° West 380 437 36,000  Level Toronto Center
Sat 06:07:32 PM 43.0167 -81.1833 262° West 390 449 36,000  Level Toronto Center
Sat 06:08:32 PM 43.0167 -81.3167 270° West 390 449 36,000  Level Toronto Center
Sat 06:09:32 PM 43.0167 -81.4833 270° West 390 449 36,000  Level Toronto Center
Sat 06:10:32 PM 43.0167 -81.6333 270° West 380 437 36,000  Level Toronto Center
Sat 06:11:32 PM 43.0167 -81.7833 270° West 390 449 36,000  Level Toronto Center
Sat 06:12:32 PM 43.0000 -81.9333 261° West 390 449 36,000  Level Toronto Center
Sat 06:13:32 PM 43.0000 -82.0667 270° West 390 449 36,000  Level Toronto Center
Sat 06:14:32 PM 43.0000 -82.2333 270° West 390 449 36,000  Level Toronto Center
Sat 06:15:32 PM 43.0000 -82.3667 270° West 390 449 36,000  Level Toronto Center
Sat 06:16:32 PM 43.0000 -82.5333 270° West 390 449 36,000 -149 Level Toronto Center
Sat 06:17:33 PM 43.0039 -82.6811 272° West 392 451 35,700 -694 Descending Cleveland Center
Sat 06:18:33 PM 42.9969 -82.8258 266° West 392 451 34,600 -1,100 Descending Cleveland Center
Sat 06:19:33 PM 42.9939 -82.9703 268° West 387 445 33,500 -1,100 Descending Cleveland Center
Sat 06:20:33 PM 42.9892 -83.0950 267° West 362 417 32,400 -750 Descending Cleveland Center
Sat 06:21:33 PM 42.9842 -83.2367 267° West 362 417 32,000 -200 Descending Cleveland Center
Sat 06:22:33 PM 42.9808 -83.3728 268° West 362 417 32,000  Level Cleveland Center
Sat 06:23:33 PM 42.9731 -83.5144 266° West 368 423 32,000  Level Cleveland Center
Sat 06:24:33 PM 42.9675 -83.6533 267° West 368 423 32,000  Level Cleveland Center
Sat 06:25:33 PM 42.9594 -83.7975 266° West 368 423 32,000  Level Cleveland Center
Sat 06:26:33 PM 42.9472 -83.9331 263° West 368 423 32,000  Level Cleveland Center
Sat 06:27:33 PM 42.9347 -84.0714 263° West 368 423 32,000  Level Cleveland Center
Sat 06:29:13 PM 42.9136 -84.3025 263° West 380 437 32,000  Level Chicago Center
Sat 06:30:15 PM 42.8981 -84.4472 262° West 386 444 32,000  Level Chicago Center
Sat 06:31:16 PM 42.8842 -84.5917 263° West 385 443 32,000  Level Chicago Center
Sat 06:32:18 PM 42.8692 -84.7325 262° West 379 436 32,000  Level Chicago Center
Sat 06:33:19 PM 42.8547 -84.8739 262° West 378 435 32,000  Level Chicago Center
Sat 06:34:21 PM 42.8400 -85.0142 262° West 374 430 32,000  Level Chicago Center
Sat 06:35:22 PM 42.8247 -85.1556 262° West 376 433 32,000  Level Chicago Center
Sat 06:36:24 PM 42.8069 -85.3183 262° West 365 420 32,000 -146 Level Chicago Center
Sat 06:37:25 PM 42.7919 -85.4569 262° West 368 423 31,700 -1,279 Descending Chicago Center
Sat 06:38:26 PM 42.7708 -85.5950 258° West 371 427 29,400 -2,341 Descending Chicago Center
Sat 06:39:28 PM 42.7456 -85.7328 256° West 372 428 26,900 -2,537 Descending Chicago Center
Sat 06:40:29 PM 42.7200 -85.8703 256° West 373 429 24,200 -2,585 Descending Chicago Center
Sat 06:41:31 PM 42.6964 -86.0017 256° West 360 414 21,600 -1,854 Descending Chicago Center
Sat 06:42:32 PM 42.6722 -86.1314 256° West 354 407 20,400 -787 Descending Chicago Center
Sat 06:43:33 PM 42.6483 -86.2617 256° West 353 406 20,000 -195 Descending Chicago Center
Sat 06:44:35 PM 42.6242 -86.3900 256° West 351 404 20,000  Level Chicago Center
Sat 06:45:36 PM 42.5997 -86.5194 256° West 355 409 20,000 -738 Level Chicago Center
Sat 06:46:37 PM 42.5753 -86.6492 256° West 354 407 18,500 -1,756 Descending Chicago Center
Sat 06:47:39 PM 42.5414 -86.8047 254° West 362 417 16,400 -2,000 Descending Chicago Center
Sat 06:48:40 PM 42.5075 -86.9294 250° West 354 407 14,400 -1,967 Descending Chicago Center
Sat 06:49:41 PM 42.4747 -87.0425 249° West 329 379 12,400 -1,561 Descending Chicago Center
Sat 06:50:43 PM 42.4467 -87.1461 250° West 296 341 11,200 -1,122 Descending Chicago Center
Sat 06:51:44 PM 42.4192 -87.2433 249° West 281 323 10,100 -590 Descending Chicago Center
Sat 06:52:45 PM 42.3931 -87.3397 250° West 276 318 10,000 -49 Descending Chicago Center
Sat 06:53:47 PM 42.3639 -87.4450 249° West 275 316 10,000 -293 Level Chicago Center
Sat 06:54:48 PM 42.3353 -87.5392 248° West 275 316 9,400 -787 Descending Chicago Center
Sat 06:55:49 PM 42.2775 -87.6056 220° Southwest 274 315 8,400 -976 Descending Chicago Center
Sat 06:56:51 PM 42.2236 -87.6572 215° Southwest 242 278 7,400 -683 Descending Chicago Center
Sat 06:57:52 PM 42.1969 -87.7200 240° Southwest 208 239 7,000 -195 Descending Chicago Center
Sat 06:58:54 PM 42.1931 -87.7819 265° West 173 199 7,000 -98 Level Chicago Center
Sat 06:59:55 PM 42.1889 -87.8578 266° West 172 198 6,800 -585 Descending Chicago Center
Sat 07:00:57 PM 42.1861 -87.9169 266° West 163 188 5,800 -1,024 Descending Chicago Center
Sat 07:01:58 PM 42.1722 -87.9750 252° West 173 199 4,700 -1,082 Descending Chicago Center

Login

Don't have an account? Register now (free) for customized features, flight alerts, and more!